createdAt,value
2017-06-22T00:00:34.209Z,1006.14
2017-06-22T00:01:34.205Z,1006.09
2017-06-22T00:02:34.207Z,1006.07
2017-06-22T00:03:34.205Z,1006.09
2017-06-22T00:04:34.158Z,1006.12
2017-06-22T00:05:34.249Z,1006.08
2017-06-22T00:06:34.148Z,1006.05
2017-06-22T00:07:34.230Z,1006.03
2017-06-22T00:08:34.242Z,1006.04
2017-06-22T00:09:34.240Z,1006.09
2017-06-22T00:10:34.163Z,1006.02
2017-06-22T00:11:34.248Z,1006.06
2017-06-22T00:12:34.237Z,1006.03
2017-06-22T00:13:34.164Z,1005.96
2017-06-22T00:14:34.241Z,1005.94
2017-06-22T00:15:34.248Z,1005.89
2017-06-22T00:16:34.254Z,1005.91
2017-06-22T00:17:34.238Z,1005.90
2017-06-22T00:18:34.161Z,1005.84
2017-06-22T00:19:34.167Z,1005.83
2017-06-22T00:20:34.158Z,1005.85
2017-06-22T00:21:34.248Z,1005.83
2017-06-22T00:22:34.232Z,1005.82
2017-06-22T00:23:34.161Z,1005.81
2017-06-22T00:24:34.246Z,1005.78
2017-06-22T00:25:34.250Z,1005.79
2017-06-22T00:26:34.253Z,1005.78
2017-06-22T00:27:34.219Z,1005.80
2017-06-22T00:28:34.173Z,1005.77
2017-06-22T00:29:34.216Z,1005.85
2017-06-22T00:30:34.167Z,1005.75
2017-06-22T00:31:34.173Z,1005.75
2017-06-22T00:32:34.246Z,1005.71
2017-06-22T00:33:34.251Z,1005.69
2017-06-22T00:34:34.249Z,1005.65
2017-06-22T00:35:34.171Z,1005.65
2017-06-22T00:36:34.174Z,1005.66
2017-06-22T00:37:34.267Z,1005.68
2017-06-22T00:38:34.262Z,1005.65
2017-06-22T00:39:34.256Z,1005.70
2017-06-22T00:40:34.255Z,1005.60
2017-06-22T00:41:34.174Z,1005.60
2017-06-22T00:42:34.223Z,1005.54
2017-06-22T00:43:34.242Z,1005.57
2017-06-22T00:44:34.257Z,1005.49
2017-06-22T00:45:34.242Z,1005.50
2017-06-22T00:46:34.181Z,1005.41
2017-06-22T00:47:34.252Z,1005.38
2017-06-22T00:48:34.268Z,1005.36
2017-06-22T00:49:34.256Z,1005.33
2017-06-22T00:50:34.222Z,1005.30
2017-06-22T00:51:34.354Z,1005.26
2017-06-22T00:52:34.184Z,1005.28
2017-06-22T00:53:34.186Z,1005.26
2017-06-22T00:54:34.177Z,1005.31
2017-06-22T00:55:34.250Z,1005.36
2017-06-22T00:56:34.252Z,1005.35
2017-06-22T00:57:34.249Z,1005.32
2017-06-22T00:58:34.249Z,1005.35
2017-06-22T00:59:34.253Z,1005.36
2017-06-22T01:00:34.252Z,1005.32
2017-06-22T01:01:34.252Z,1005.32
2017-06-22T01:02:34.250Z,1005.25
2017-06-22T01:03:34.249Z,1005.32
2017-06-22T01:04:34.254Z,1005.24
2017-06-22T01:05:34.271Z,1005.26
2017-06-22T01:06:34.190Z,1005.25
2017-06-22T01:07:34.206Z,1005.20
2017-06-22T01:08:34.265Z,1005.19
2017-06-22T01:09:34.267Z,1005.24
2017-06-22T01:10:34.280Z,1005.18
2017-06-22T01:11:34.268Z,1005.27
2017-06-22T01:12:34.286Z,1005.24
2017-06-22T01:13:34.259Z,1005.23
2017-06-22T01:14:34.284Z,1005.22
2017-06-22T01:15:34.247Z,1005.21
2017-06-22T01:16:34.282Z,1005.19
2017-06-22T01:17:34.283Z,1005.19
2017-06-22T01:18:34.249Z,1005.16
2017-06-22T01:19:34.267Z,1005.17
2017-06-22T01:20:34.285Z,1005.13
2017-06-22T01:21:34.201Z,1005.16
2017-06-22T01:22:34.250Z,1005.12
2017-06-22T01:23:34.273Z,1005.07
2017-06-22T01:24:34.267Z,1005.08
2017-06-22T01:25:34.252Z,1005.07
2017-06-22T01:26:34.215Z,1005.02
2017-06-22T01:27:34.201Z,1005.02
2017-06-22T01:28:34.258Z,1005.02
2017-06-22T01:29:34.250Z,1005.09
2017-06-22T01:30:34.206Z,1005.04
2017-06-22T01:31:34.277Z,1005.04
2017-06-22T01:32:34.203Z,1005.02
2017-06-22T01:33:34.287Z,1005.05
2017-06-22T01:34:34.252Z,1005.07
2017-06-22T01:35:34.390Z,1004.98
2017-06-22T01:36:34.276Z,1004.96
2017-06-22T01:37:34.204Z,1004.98
2017-06-22T01:38:34.287Z,1004.97
2017-06-22T01:39:34.295Z,1005.06
2017-06-22T01:40:34.206Z,1005.02
2017-06-22T01:41:34.296Z,1005.13
2017-06-22T01:42:34.481Z,1005.05
2017-06-22T01:43:34.223Z,1005.09
2017-06-22T01:44:34.279Z,1005.11
2017-06-22T01:45:34.266Z,1005.10
2017-06-22T01:46:34.276Z,1005.03
2017-06-22T01:47:34.296Z,1005.02
2017-06-22T01:48:34.260Z,1005.00
2017-06-22T01:49:34.214Z,1005.04
2017-06-22T01:50:34.300Z,1004.97
2017-06-22T01:51:34.262Z,1005.00
2017-06-22T01:52:34.259Z,1005.01
2017-06-22T01:53:34.303Z,1005.00
2017-06-22T01:54:34.304Z,1004.99
2017-06-22T01:55:34.283Z,1005.02
2017-06-22T01:56:34.282Z,1005.03
2017-06-22T01:57:34.282Z,1005.07
2017-06-22T01:58:34.213Z,1005.10
2017-06-22T01:59:34.283Z,1005.07
2017-06-22T02:00:34.284Z,1004.98
2017-06-22T02:01:34.284Z,1005.00
2017-06-22T02:02:34.298Z,1005.00
2017-06-22T02:03:34.288Z,1004.92
2017-06-22T02:04:34.300Z,1004.90
2017-06-22T02:05:34.294Z,1004.98
2017-06-22T02:06:34.286Z,1005.00
2017-06-22T02:07:34.286Z,1004.98
2017-06-22T02:08:34.288Z,1005.01
2017-06-22T02:09:34.284Z,1004.99
2017-06-22T02:10:34.292Z,1004.97
2017-06-22T02:11:34.291Z,1005.00
2017-06-22T02:12:34.203Z,1005.09
2017-06-22T02:13:34.289Z,1005.00
2017-06-22T02:14:34.290Z,1004.99
2017-06-22T02:15:34.288Z,1005.01
2017-06-22T02:16:34.291Z,1004.98
2017-06-22T02:17:34.295Z,1004.98
2017-06-22T02:18:34.290Z,1004.92
2017-06-22T02:19:34.292Z,1004.93
2017-06-22T02:20:34.376Z,1004.93
2017-06-22T02:21:34.295Z,1004.89
2017-06-22T02:22:34.296Z,1004.89
2017-06-22T02:23:34.269Z,1004.91
2017-06-22T02:24:34.293Z,1004.89
2017-06-22T02:25:34.280Z,1004.93
2017-06-22T02:26:34.304Z,1004.89
2017-06-22T02:27:34.324Z,1004.86
2017-06-22T02:28:34.311Z,1004.85
2017-06-22T02:29:34.294Z,1004.87
2017-06-22T02:30:34.288Z,1004.93
2017-06-22T02:31:34.288Z,1004.89
2017-06-22T02:32:34.324Z,1004.89
2017-06-22T02:33:34.324Z,1004.93
2017-06-22T02:34:34.243Z,1004.89
2017-06-22T02:35:34.291Z,1004.87
2017-06-22T02:36:34.302Z,1004.88
2017-06-22T02:37:34.346Z,1004.89
2017-06-22T02:38:34.391Z,1004.85
2017-06-22T02:39:34.303Z,1004.87
2017-06-22T02:40:34.317Z,1004.84
2017-06-22T02:41:34.347Z,1004.91
2017-06-22T02:42:34.323Z,1004.90
2017-06-22T02:43:34.331Z,1004.95
2017-06-22T02:44:34.289Z,1004.91
2017-06-22T02:45:34.397Z,1004.92
2017-06-22T02:46:34.296Z,1004.89
2017-06-22T02:47:34.296Z,1004.90
2017-06-22T02:48:34.302Z,1004.88
2017-06-22T02:49:34.296Z,1004.86
2017-06-22T02:50:34.298Z,1004.80
2017-06-22T02:51:34.304Z,1004.85
2017-06-22T02:52:34.301Z,1004.88
2017-06-22T02:53:34.302Z,1004.84
2017-06-22T02:54:34.301Z,1004.80
2017-06-22T02:55:34.243Z,1004.76
2017-06-22T02:56:34.334Z,1004.80
2017-06-22T02:57:34.327Z,1004.81
2017-06-22T02:58:34.303Z,1004.80
2017-06-22T02:59:34.321Z,1004.76
2017-06-22T03:00:34.334Z,1004.74
2017-06-22T03:01:34.339Z,1004.75
2017-06-22T03:02:34.338Z,1004.75
2017-06-22T03:03:34.337Z,1004.75
2017-06-22T03:04:34.298Z,1004.71
2017-06-22T03:05:34.306Z,1004.75
2017-06-22T03:06:34.305Z,1004.74
2017-06-22T03:07:34.308Z,1004.76
2017-06-22T03:08:34.308Z,1004.73
2017-06-22T03:09:34.313Z,1004.72
2017-06-22T03:10:34.312Z,1004.69
2017-06-22T03:11:34.311Z,1004.70
2017-06-22T03:12:34.310Z,1004.75
2017-06-22T03:13:34.309Z,1004.75
2017-06-22T03:14:34.311Z,1004.74
2017-06-22T03:15:34.341Z,1004.76
2017-06-22T03:16:34.341Z,1004.74
2017-06-22T03:17:34.307Z,1004.73
2017-06-22T03:18:34.278Z,1004.70
2017-06-22T03:19:34.268Z,1004.74
2017-06-22T03:20:34.311Z,1004.69
2017-06-22T03:21:34.345Z,1004.75
2017-06-22T03:22:34.326Z,1004.73
2017-06-22T03:23:34.264Z,1004.72
2017-06-22T03:24:34.346Z,1004.74
2017-06-22T03:25:34.349Z,1004.70
2017-06-22T03:26:34.354Z,1004.75
2017-06-22T03:27:34.256Z,1004.71
2017-06-22T03:28:34.300Z,1004.69
2017-06-22T03:29:34.254Z,1004.69
2017-06-22T03:30:34.356Z,1004.72
2017-06-22T03:31:34.254Z,1004.63
2017-06-22T03:32:34.291Z,1004.62
2017-06-22T03:33:34.252Z,1004.63
2017-06-22T03:34:34.252Z,1004.67
2017-06-22T03:35:34.350Z,1004.64
2017-06-22T03:36:34.347Z,1004.71
2017-06-22T03:37:34.353Z,1004.64
2017-06-22T03:38:34.458Z,1004.63
2017-06-22T03:39:34.359Z,1004.65
2017-06-22T03:40:34.349Z,1004.61
2017-06-22T03:41:34.363Z,1004.54
2017-06-22T03:42:34.367Z,1004.53
2017-06-22T03:43:34.336Z,1004.52
2017-06-22T03:44:34.359Z,1004.47
2017-06-22T03:45:34.254Z,1004.50
2017-06-22T03:46:34.256Z,1004.53
2017-06-22T03:47:34.252Z,1004.56
2017-06-22T03:48:34.255Z,1004.55
2017-06-22T03:49:34.340Z,1004.55
2017-06-22T03:50:34.249Z,1004.54
2017-06-22T03:51:34.245Z,1004.49
2017-06-22T03:52:34.222Z,1004.54
2017-06-22T03:53:34.261Z,1004.51
2017-06-22T03:54:34.301Z,1004.54
2017-06-22T03:55:34.222Z,1004.50
2017-06-22T03:56:34.258Z,1004.53
2017-06-22T03:57:34.251Z,1004.51
2017-06-22T03:58:34.232Z,1004.50
2017-06-22T03:59:34.249Z,1004.43
2017-06-22T04:00:34.361Z,1004.48
2017-06-22T04:01:34.222Z,1004.55
2017-06-22T04:02:34.260Z,1004.49
2017-06-22T04:03:34.249Z,1004.53
2017-06-22T04:04:34.364Z,1004.54
2017-06-22T04:05:34.306Z,1004.47
2017-06-22T04:06:34.282Z,1004.47
2017-06-22T04:07:34.277Z,1004.44
2017-06-22T04:08:34.348Z,1004.48
2017-06-22T04:09:34.285Z,1004.47
2017-06-22T04:10:34.371Z,1004.47
2017-06-22T04:11:34.279Z,1004.48
2017-06-22T04:12:34.372Z,1004.48
2017-06-22T04:13:34.370Z,1004.50
2017-06-22T04:14:34.382Z,1004.49
2017-06-22T04:15:34.351Z,1004.48
2017-06-22T04:16:34.356Z,1004.46
2017-06-22T04:17:34.355Z,1004.43
2017-06-22T04:18:34.357Z,1004.38
2017-06-22T04:19:34.357Z,1004.40
2017-06-22T04:20:34.359Z,1004.39
2017-06-22T04:21:34.358Z,1004.38
2017-06-22T04:22:34.383Z,1004.38
2017-06-22T04:23:34.362Z,1004.45
2017-06-22T04:24:34.359Z,1004.41
2017-06-22T04:25:34.363Z,1004.43
2017-06-22T04:26:34.346Z,1004.45
2017-06-22T04:27:34.349Z,1004.43
2017-06-22T04:28:34.351Z,1004.46
2017-06-22T04:29:34.352Z,1004.45
2017-06-22T04:30:34.350Z,1004.44
2017-06-22T04:31:34.355Z,1004.41
2017-06-22T04:32:34.356Z,1004.43
2017-06-22T04:33:34.352Z,1004.41
2017-06-22T04:34:34.354Z,1004.44
2017-06-22T04:35:34.354Z,1004.48
2017-06-22T04:36:34.389Z,1004.51
2017-06-22T04:37:34.385Z,1004.52
2017-06-22T04:38:34.389Z,1004.52
2017-06-22T04:39:34.389Z,1004.55
2017-06-22T04:40:34.393Z,1004.60
2017-06-22T04:41:34.361Z,1004.59
2017-06-22T04:42:34.347Z,1004.64
2017-06-22T04:43:34.391Z,1004.55
2017-06-22T04:44:34.368Z,1004.54
2017-06-22T04:45:34.413Z,1004.50
2017-06-22T04:46:34.379Z,1004.57
2017-06-22T04:47:34.371Z,1004.51
2017-06-22T04:48:34.374Z,1004.53
2017-06-22T04:49:34.374Z,1004.50
2017-06-22T04:50:34.379Z,1004.48
2017-06-22T04:51:34.402Z,1004.46
2017-06-22T04:52:34.377Z,1004.50
2017-06-22T04:53:34.376Z,1004.42
2017-06-22T04:54:34.380Z,1004.40
2017-06-22T04:55:34.394Z,1004.40
2017-06-22T04:56:34.404Z,1004.41
2017-06-22T04:57:34.384Z,1004.42
2017-06-22T04:58:34.313Z,1004.39
2017-06-22T04:59:34.395Z,1004.38
2017-06-22T05:00:34.318Z,1004.48
2017-06-22T05:01:34.321Z,1004.45
2017-06-22T05:02:34.324Z,1004.46
2017-06-22T05:03:34.377Z,1004.42
2017-06-22T05:04:34.386Z,1004.44
2017-06-22T05:05:34.313Z,1004.39
2017-06-22T05:06:34.388Z,1004.36
2017-06-22T05:07:34.383Z,1004.33
2017-06-22T05:08:34.387Z,1004.27
2017-06-22T05:09:34.386Z,1004.32
2017-06-22T05:10:34.385Z,1004.32
2017-06-22T05:11:34.384Z,1004.29
2017-06-22T05:12:34.387Z,1004.27
2017-06-22T05:13:34.385Z,1004.30
2017-06-22T05:14:34.387Z,1004.31
2017-06-22T05:15:34.390Z,1004.27
2017-06-22T05:16:34.304Z,1004.28
2017-06-22T05:17:34.320Z,1004.31
2017-06-22T05:18:34.317Z,1004.27
2017-06-22T05:20:34.311Z,1004.28
2017-06-22T05:21:34.309Z,1004.26
2017-06-22T05:22:34.298Z,1004.25
2017-06-22T05:23:34.304Z,1004.24
2017-06-22T05:24:34.367Z,1004.22
2017-06-22T05:25:34.346Z,1004.22
2017-06-22T05:26:34.337Z,1004.24
2017-06-22T05:27:34.414Z,1004.23
2017-06-22T05:28:34.417Z,1004.16
2017-06-22T05:29:34.422Z,1004.13
2017-06-22T05:30:34.413Z,1004.09
2017-06-22T05:31:34.328Z,1004.10
2017-06-22T05:32:34.334Z,1004.11
2017-06-22T05:33:34.419Z,1004.03
2017-06-22T05:34:34.414Z,1004.04
2017-06-22T05:35:34.402Z,1003.98
2017-06-22T05:36:34.343Z,1003.99
2017-06-22T05:37:34.336Z,1003.97
2017-06-22T05:38:34.378Z,1003.99
2017-06-22T05:39:34.339Z,1003.99
2017-06-22T05:40:34.429Z,1003.98
2017-06-22T05:41:34.441Z,1003.99
2017-06-22T05:42:34.427Z,1004.00
2017-06-22T05:43:34.337Z,1003.96
2017-06-22T05:44:34.430Z,1003.92
2017-06-22T05:45:34.341Z,1003.95
2017-06-22T05:46:34.421Z,1003.91
2017-06-22T05:47:34.426Z,1003.89
2017-06-22T05:48:34.422Z,1003.86
2017-06-22T05:49:34.342Z,1003.87
2017-06-22T05:50:34.359Z,1003.90
2017-06-22T05:51:34.345Z,1003.85
2017-06-22T05:52:34.437Z,1003.88
2017-06-22T05:53:34.387Z,1003.87
2017-06-22T05:54:34.337Z,1003.86
2017-06-22T05:55:34.430Z,1003.88
2017-06-22T05:56:34.409Z,1003.79
2017-06-22T05:57:34.413Z,1003.74
2017-06-22T05:58:34.425Z,1003.76
2017-06-22T05:59:34.413Z,1003.74
2017-06-22T06:00:34.414Z,1003.78
2017-06-22T06:01:34.416Z,1003.77
2017-06-22T06:02:34.415Z,1003.76
2017-06-22T06:03:34.417Z,1003.78
2017-06-22T06:04:34.423Z,1003.76
2017-06-22T06:05:34.417Z,1003.78
2017-06-22T06:06:34.417Z,1003.74
2017-06-22T06:07:34.417Z,1003.71
2017-06-22T06:08:34.415Z,1003.68
2017-06-22T06:09:34.419Z,1003.66
2017-06-22T06:10:34.419Z,1003.69
2017-06-22T06:11:34.418Z,1003.66
2017-06-22T06:12:34.419Z,1003.64
2017-06-22T06:13:34.421Z,1003.65
2017-06-22T06:14:34.415Z,1003.68
2017-06-22T06:15:34.422Z,1003.66
2017-06-22T06:16:34.358Z,1003.62
2017-06-22T06:17:34.400Z,1003.58
2017-06-22T06:18:34.359Z,1003.55
2017-06-22T06:19:34.447Z,1003.52
2017-06-22T06:20:34.438Z,1003.52
2017-06-22T06:21:34.421Z,1003.52
2017-06-22T06:22:34.401Z,1003.48
2017-06-22T06:23:34.448Z,1003.48
2017-06-22T06:24:34.453Z,1003.48
2017-06-22T06:25:34.354Z,1003.52
2017-06-22T06:26:34.420Z,1003.49
2017-06-22T06:27:34.359Z,1003.50
2017-06-22T06:28:34.447Z,1003.50
2017-06-22T06:29:34.435Z,1003.47
2017-06-22T06:30:34.391Z,1003.51
2017-06-22T06:31:34.453Z,1003.49
2017-06-22T06:32:34.426Z,1003.46
2017-06-22T06:33:34.409Z,1003.45
2017-06-22T06:34:34.430Z,1003.44
2017-06-22T06:35:34.459Z,1003.42
2017-06-22T06:36:34.369Z,1003.41
2017-06-22T06:37:34.499Z,1003.39
2017-06-22T06:38:34.463Z,1003.42
2017-06-22T06:39:34.460Z,1003.36
2017-06-22T06:40:34.456Z,1003.38
2017-06-22T06:41:34.457Z,1003.31
2017-06-22T06:42:34.371Z,1003.36
2017-06-22T06:43:34.448Z,1003.37
2017-06-22T06:44:34.462Z,1003.40
2017-06-22T06:45:34.457Z,1003.37
2017-06-22T06:46:34.459Z,1003.37
2017-06-22T06:47:34.459Z,1003.44
2017-06-22T06:48:34.441Z,1003.39
2017-06-22T06:49:34.380Z,1003.40
2017-06-22T06:50:34.470Z,1003.40
2017-06-22T06:51:34.422Z,1003.39
2017-06-22T06:52:34.451Z,1003.39
2017-06-22T06:53:34.380Z,1003.38
2017-06-22T06:54:34.423Z,1003.34
2017-06-22T06:55:34.467Z,1003.26
2017-06-22T06:56:34.468Z,1003.33
2017-06-22T06:57:34.378Z,1003.31
2017-06-22T06:58:34.469Z,1003.29
2017-06-22T06:59:34.473Z,1003.32
2017-06-22T07:00:34.442Z,1003.34
2017-06-22T07:01:34.386Z,1003.34
2017-06-22T07:02:34.479Z,1003.28
2017-06-22T07:03:34.474Z,1003.30
2017-06-22T07:04:34.463Z,1003.27
2017-06-22T07:05:34.444Z,1003.25
2017-06-22T07:06:34.446Z,1003.25
2017-06-22T07:07:34.429Z,1003.25
2017-06-22T07:08:34.503Z,1003.26
2017-06-22T07:09:34.468Z,1003.25
2017-06-22T07:10:34.380Z,1003.29
2017-06-22T07:11:34.479Z,1003.25
2017-06-22T07:12:34.442Z,1003.23
2017-06-22T07:13:34.428Z,1003.28
2017-06-22T07:14:34.478Z,1003.25
2017-06-22T07:15:34.471Z,1003.22
2017-06-22T07:16:34.468Z,1003.24
2017-06-22T07:17:34.426Z,1003.22
2017-06-22T07:18:34.474Z,1003.29
2017-06-22T07:19:34.449Z,1003.27
2017-06-22T07:20:34.448Z,1003.25
2017-06-22T07:22:34.481Z,1003.20
2017-06-22T07:23:34.476Z,1003.18
2017-06-22T07:24:34.392Z,1003.21
2017-06-22T07:25:34.591Z,1003.23
2017-06-22T07:26:34.454Z,1003.18
2017-06-22T07:27:34.489Z,1003.17
2017-06-22T07:28:34.437Z,1003.19
2017-06-22T07:29:34.399Z,1003.16
2017-06-22T07:30:34.481Z,1003.14
2017-06-22T07:31:34.483Z,1003.15
2017-06-22T07:32:34.487Z,1003.10
2017-06-22T07:33:34.404Z,1003.08
2017-06-22T07:34:34.476Z,1003.03
2017-06-22T07:35:34.490Z,1003.09
2017-06-22T07:36:34.472Z,1003.08
2017-06-22T07:37:34.467Z,1003.08
2017-06-22T07:38:34.466Z,1002.99
2017-06-22T07:39:34.465Z,1003.02
2017-06-22T07:40:34.473Z,1002.99
2017-06-22T07:41:34.468Z,1002.93
2017-06-22T07:42:34.469Z,1002.94
2017-06-22T07:43:34.471Z,1002.93
2017-06-22T07:44:34.466Z,1002.90
2017-06-22T07:45:34.469Z,1002.92
2017-06-22T07:46:34.469Z,1002.86
2017-06-22T07:47:34.470Z,1002.83
2017-06-22T07:48:34.470Z,1002.86
2017-06-22T07:49:34.468Z,1002.87
2017-06-22T07:50:34.501Z,1002.82
2017-06-22T07:51:34.472Z,1002.79
2017-06-22T07:52:34.472Z,1002.83
2017-06-22T07:53:34.474Z,1002.82
2017-06-22T07:54:34.474Z,1002.90
2017-06-22T07:55:34.478Z,1002.91
2017-06-22T07:56:34.503Z,1002.77
2017-06-22T07:57:34.497Z,1002.82
2017-06-22T07:58:34.496Z,1002.80
2017-06-22T07:59:34.411Z,1002.84
2017-06-22T08:00:34.413Z,1002.80
2017-06-22T08:01:34.496Z,1002.77
2017-06-22T08:02:34.456Z,1002.77
2017-06-22T08:03:34.415Z,1002.74
2017-06-22T08:04:34.495Z,1002.73
2017-06-22T08:05:34.503Z,1002.72
2017-06-22T08:06:34.480Z,1002.68
2017-06-22T08:07:34.484Z,1002.69
2017-06-22T08:08:34.481Z,1002.68
2017-06-22T08:09:34.486Z,1002.75
2017-06-22T08:10:34.480Z,1002.71
2017-06-22T08:11:34.483Z,1002.69
2017-06-22T08:12:34.484Z,1002.68
2017-06-22T08:13:34.489Z,1002.62
2017-06-22T08:14:34.564Z,1002.65
2017-06-22T08:15:34.487Z,1002.61
2017-06-22T08:16:34.481Z,1002.56
2017-06-22T08:17:34.392Z,1002.53
2017-06-22T08:18:34.398Z,1002.53
2017-06-22T08:19:34.483Z,1002.57
2017-06-22T08:20:34.395Z,1002.57
2017-06-22T08:21:34.486Z,1002.58
2017-06-22T08:22:34.400Z,1002.61
2017-06-22T08:23:34.486Z,1002.59
2017-06-22T08:24:34.487Z,1002.59
2017-06-22T08:25:34.375Z,1002.55
2017-06-22T08:26:34.395Z,1002.57
2017-06-22T08:27:34.482Z,1002.53
2017-06-22T08:28:34.482Z,1002.53
2017-06-22T08:29:34.482Z,1002.57
2017-06-22T08:30:34.479Z,1002.51
2017-06-22T08:31:34.484Z,1002.52
2017-06-22T08:32:34.487Z,1002.50
2017-06-22T08:33:34.479Z,1002.45
2017-06-22T08:34:34.491Z,1002.43
2017-06-22T08:35:34.491Z,1002.44
2017-06-22T08:36:34.490Z,1002.43
2017-06-22T08:37:34.494Z,1002.40
2017-06-22T08:38:34.518Z,1002.42
2017-06-22T08:39:34.515Z,1002.42
2017-06-22T08:40:34.515Z,1002.44
2017-06-22T08:41:34.437Z,1002.50
2017-06-22T08:42:34.515Z,1002.43
2017-06-22T08:43:34.434Z,1002.43
2017-06-22T08:44:34.440Z,1002.44
2017-06-22T08:45:34.523Z,1002.44
2017-06-22T08:46:34.432Z,1002.39
2017-06-22T08:47:34.522Z,1002.45
2017-06-22T08:48:34.508Z,1002.44
2017-06-22T08:49:34.506Z,1002.36
2017-06-22T08:50:34.505Z,1002.36
2017-06-22T08:51:34.505Z,1002.37
2017-06-22T08:52:34.506Z,1002.34
2017-06-22T08:53:34.508Z,1002.33
2017-06-22T08:54:34.510Z,1002.31
2017-06-22T08:55:34.433Z,1002.32
2017-06-22T08:56:34.511Z,1002.33
2017-06-22T08:57:34.391Z,1002.29
2017-06-22T08:58:34.430Z,1002.32
2017-06-22T08:59:34.460Z,1002.32
2017-06-22T09:00:34.417Z,1002.29
2017-06-22T09:01:34.456Z,1002.27
2017-06-22T09:02:34.467Z,1002.26
2017-06-22T09:03:34.454Z,1002.23
2017-06-22T09:04:34.413Z,1002.26
2017-06-22T09:05:34.419Z,1002.26
2017-06-22T09:06:34.519Z,1002.18
2017-06-22T09:07:34.535Z,1002.16
2017-06-22T09:08:34.444Z,1002.21
2017-06-22T09:09:34.457Z,1002.18
2017-06-22T09:10:34.453Z,1002.15
2017-06-22T09:11:34.534Z,1002.13
2017-06-22T09:12:34.533Z,1002.10
2017-06-22T09:13:34.451Z,1002.14
2017-06-22T09:14:34.460Z,1002.09
2017-06-22T09:15:34.496Z,1002.07
2017-06-22T09:16:34.451Z,1002.06
2017-06-22T09:17:34.438Z,1002.06
2017-06-22T09:18:34.521Z,1002.05
2017-06-22T09:19:34.525Z,1002.07
2017-06-22T09:20:34.526Z,1002.05
2017-06-22T09:21:34.525Z,1002.05
2017-06-22T09:22:34.525Z,1001.97
2017-06-22T09:23:34.527Z,1002.01
2017-06-22T09:24:34.531Z,1001.98
2017-06-22T09:25:34.531Z,1001.98
2017-06-22T09:26:34.529Z,1001.89
2017-06-22T09:27:34.555Z,1001.89
2017-06-22T09:28:34.547Z,1001.90
2017-06-22T09:29:34.549Z,1001.85
2017-06-22T09:30:34.547Z,1001.89
2017-06-22T09:31:34.550Z,1001.88
2017-06-22T09:32:34.549Z,1001.84
2017-06-22T09:33:34.652Z,1001.81
2017-06-22T09:34:34.550Z,1001.76
2017-06-22T09:35:34.509Z,1001.76
2017-06-22T09:36:34.471Z,1001.80
2017-06-22T09:37:34.467Z,1001.75
2017-06-22T09:38:34.558Z,1001.75
2017-06-22T09:39:34.471Z,1001.74
2017-06-22T09:40:34.553Z,1001.73
2017-06-22T09:41:34.559Z,1001.73
2017-06-22T09:42:34.469Z,1001.67
2017-06-22T09:43:34.476Z,1001.66
2017-06-22T09:45:34.558Z,1001.60
2017-06-22T09:46:34.475Z,1001.62
2017-06-22T09:47:34.560Z,1001.53
2017-06-22T09:48:34.480Z,1001.57
2017-06-22T09:49:34.473Z,1001.48
2017-06-22T09:50:34.479Z,1001.47
2017-06-22T09:51:34.538Z,1001.47
2017-06-22T09:52:34.558Z,1001.45
2017-06-22T09:53:34.570Z,1001.38
2017-06-22T09:54:34.536Z,1001.38
2017-06-22T09:55:34.576Z,1001.30
2017-06-22T09:56:34.538Z,1001.21
2017-06-22T09:57:34.534Z,1001.25
2017-06-22T09:58:34.550Z,1001.21
2017-06-22T09:59:34.539Z,1001.20
2017-06-22T10:00:34.530Z,1001.14
2017-06-22T10:01:34.533Z,1001.11
2017-06-22T10:02:34.533Z,1001.10
2017-06-22T10:03:34.532Z,1001.07
2017-06-22T10:04:34.537Z,1001.07
2017-06-22T10:05:34.486Z,1001.06
2017-06-22T10:06:34.537Z,1001.06
2017-06-22T10:07:34.488Z,1001.05
2017-06-22T10:09:34.576Z,1000.97
2017-06-22T10:10:34.512Z,1000.96
2017-06-22T10:11:34.570Z,1000.95
2017-06-22T10:12:34.566Z,1000.89
2017-06-22T10:13:34.560Z,1000.89
2017-06-22T10:14:34.480Z,1000.94
2017-06-22T10:15:34.495Z,1000.92
2017-06-22T10:16:34.490Z,1000.95
2017-06-22T10:17:34.543Z,1000.91
2017-06-22T10:18:34.571Z,1000.93
2017-06-22T10:19:34.542Z,1000.89
2017-06-22T10:20:34.544Z,1000.89
2017-06-22T10:21:34.548Z,1000.98
2017-06-22T10:22:34.545Z,1000.83
2017-06-22T10:23:34.548Z,1000.82
2017-06-22T10:24:34.545Z,1000.83
2017-06-22T10:25:34.552Z,1000.75
2017-06-22T10:26:34.548Z,1000.75
2017-06-22T10:27:34.547Z,1000.69
2017-06-22T10:28:34.652Z,1000.72
2017-06-22T10:29:34.549Z,1000.71
2017-06-22T10:30:34.550Z,1000.65
2017-06-22T10:31:34.549Z,1000.64
2017-06-22T10:32:34.553Z,1000.64
2017-06-22T10:33:34.552Z,1000.60
2017-06-22T10:34:34.554Z,1000.66
2017-06-22T10:35:34.557Z,1000.68
2017-06-22T10:36:34.555Z,1000.65
2017-06-22T10:37:34.529Z,1000.60
2017-06-22T10:38:34.538Z,1000.55
2017-06-22T10:39:34.481Z,1000.50
2017-06-22T10:40:34.578Z,1000.55
2017-06-22T10:41:34.546Z,1000.56
2017-06-22T10:42:34.588Z,1000.57
2017-06-22T10:43:34.479Z,1000.54
2017-06-22T10:44:34.534Z,1000.47
2017-06-22T10:45:34.483Z,1000.44
2017-06-22T10:46:34.534Z,1000.48
2017-06-22T10:47:34.537Z,1000.48
2017-06-22T10:48:34.486Z,1000.34
2017-06-22T10:49:34.495Z,1000.33
2017-06-22T10:50:34.577Z,1000.35
2017-06-22T10:51:34.493Z,1000.29
2017-06-22T10:52:34.550Z,1000.34
2017-06-22T10:53:34.538Z,1000.30
2017-06-22T10:54:34.587Z,1000.27
2017-06-22T10:55:34.732Z,1000.21
2017-06-22T10:56:34.545Z,1000.20
2017-06-22T10:57:34.667Z,1000.18
2017-06-22T10:58:34.568Z,1000.14
2017-06-22T10:59:34.567Z,1000.15
2017-06-22T11:00:34.566Z,1000.14
2017-06-22T11:01:34.566Z,1000.10
2017-06-22T11:02:34.565Z,1000.09
2017-06-22T11:03:34.565Z,1000.15
2017-06-22T11:04:34.571Z,1000.14
2017-06-22T11:05:34.577Z,1000.04
2017-06-22T11:06:34.568Z,1000.06
2017-06-22T11:07:34.585Z,1000.07
2017-06-22T11:08:34.582Z,1000.12
2017-06-22T11:09:34.585Z,1000.09
2017-06-22T11:10:34.581Z,1000.09
2017-06-22T11:11:34.593Z,1000.02
2017-06-22T11:12:34.579Z,1000.04
2017-06-22T11:13:34.584Z,1000.00
2017-06-22T11:14:34.583Z,999.95
2017-06-22T11:15:34.592Z,999.98
2017-06-22T11:16:34.591Z,999.99
2017-06-22T11:17:34.611Z,999.99
2017-06-22T11:18:34.531Z,999.95
2017-06-22T11:19:34.591Z,999.94
2017-06-22T11:20:34.613Z,999.96
2017-06-22T11:21:34.528Z,999.88
2017-06-22T11:22:34.616Z,999.92
2017-06-22T11:23:34.577Z,999.92
2017-06-22T11:24:34.643Z,999.88
2017-06-22T11:25:34.522Z,999.86
2017-06-22T11:26:34.552Z,999.87
2017-06-22T11:27:34.591Z,999.90
2017-06-22T11:28:34.595Z,999.90
2017-06-22T11:29:34.608Z,999.91
2017-06-22T11:30:34.596Z,999.88
2017-06-22T11:31:34.598Z,999.87
2017-06-22T11:32:34.595Z,999.85
2017-06-22T11:33:34.596Z,999.85
2017-06-22T11:34:34.597Z,999.79
2017-06-22T11:35:34.512Z,999.76
2017-06-22T11:36:34.596Z,999.77
2017-06-22T11:37:34.599Z,999.71
2017-06-22T11:38:34.602Z,999.75
2017-06-22T11:39:34.598Z,999.79
2017-06-22T11:40:34.629Z,999.77
2017-06-22T11:41:34.601Z,999.78
2017-06-22T11:42:34.599Z,999.73
2017-06-22T11:43:34.520Z,999.71
2017-06-22T11:44:34.600Z,999.75
2017-06-22T11:45:34.602Z,999.68
2017-06-22T11:46:34.602Z,999.68
2017-06-22T11:47:34.606Z,999.68
2017-06-22T11:48:34.601Z,999.66
2017-06-22T11:49:34.506Z,999.59
2017-06-22T11:50:34.491Z,999.68
2017-06-22T11:51:34.619Z,999.66
2017-06-22T11:52:34.490Z,999.64
2017-06-22T11:53:34.523Z,999.63
2017-06-22T11:54:34.568Z,999.66
2017-06-22T11:55:34.550Z,999.67
2017-06-22T11:56:34.571Z,999.63
2017-06-22T11:57:34.554Z,999.61
2017-06-22T11:58:34.495Z,999.68
2017-06-22T11:59:34.610Z,999.64
2017-06-22T12:00:34.567Z,999.66
2017-06-22T12:01:34.494Z,999.70
2017-06-22T12:02:34.627Z,999.65
2017-06-22T12:03:34.536Z,999.66
2017-06-22T12:04:34.538Z,999.52
2017-06-22T12:05:34.519Z,999.56
2017-06-22T12:06:34.569Z,999.53
2017-06-22T12:07:34.672Z,999.51
2017-06-22T12:08:34.554Z,999.52
2017-06-22T12:09:34.636Z,999.45
2017-06-22T12:10:34.557Z,999.49
2017-06-22T12:11:34.628Z,999.52